sensor_id;sensor_type;location;lat;lon;timestamp;P1;durP1;ratioP1;P2;durP2;ratioP2
20399;SDS011;10359;53.596;22.520;2023-08-08T00:01:50;4.93;;;2.50;;
20399;SDS011;10359;53.596;22.520;2023-08-08T00:04:19;5.03;;;2.67;;
20399;SDS011;10359;53.596;22.520;2023-08-08T00:06:49;6.63;;;2.60;;
20399;SDS011;10359;53.596;22.520;2023-08-08T00:09:18;3.90;;;2.63;;
20399;SDS011;10359;53.596;22.520;2023-08-08T00:11:49;6.53;;;2.80;;
20399;SDS011;10359;53.596;22.520;2023-08-08T00:14:18;4.80;;;2.43;;
20399;SDS011;10359;53.596;22.520;2023-08-08T00:16:48;3.60;;;2.47;;
20399;SDS011;10359;53.596;22.520;2023-08-08T00:19:17;6.43;;;2.63;;
20399;SDS011;10359;53.596;22.520;2023-08-08T00:21:47;5.03;;;2.40;;
20399;SDS011;10359;53.596;22.520;2023-08-08T00:24:16;5.50;;;2.80;;
20399;SDS011;10359;53.596;22.520;2023-08-08T00:26:46;5.90;;;2.70;;
20399;SDS011;10359;53.596;22.520;2023-08-08T00:29:17;4.67;;;2.40;;
20399;SDS011;10359;53.596;22.520;2023-08-08T00:31:46;4.30;;;2.50;;
20399;SDS011;10359;53.596;22.520;2023-08-08T00:34:15;6.27;;;2.57;;
20399;SDS011;10359;53.596;22.520;2023-08-08T00:36:45;6.40;;;2.40;;
20399;SDS011;10359;53.596;22.520;2023-08-08T00:39:14;6.87;;;2.90;;
20399;SDS011;10359;53.596;22.520;2023-08-08T00:41:43;5.57;;;2.40;;
20399;SDS011;10359;53.596;22.520;2023-08-08T00:44:13;6.83;;;2.77;;
20399;SDS011;10359;53.596;22.520;2023-08-08T00:46:43;3.70;;;2.63;;
20399;SDS011;10359;53.596;22.520;2023-08-08T00:49:13;7.90;;;3.13;;
20399;SDS011;10359;53.596;22.520;2023-08-08T00:51:42;4.53;;;2.80;;
20399;SDS011;10359;53.596;22.520;2023-08-08T00:54:11;4.27;;;2.97;;
20399;SDS011;10359;53.596;22.520;2023-08-08T00:56:41;4.20;;;2.53;;
20399;SDS011;10359;53.596;22.520;2023-08-08T00:59:11;5.83;;;2.93;;
20399;SDS011;10359;53.596;22.520;2023-08-08T01:01:43;6.13;;;2.93;;
20399;SDS011;10359;53.596;22.520;2023-08-08T01:04:13;4.10;;;2.93;;
20399;SDS011;10359;53.596;22.520;2023-08-08T01:06:44;4.63;;;3.00;;
20399;SDS011;10359;53.596;22.520;2023-08-08T01:09:21;4.13;;;2.83;;
20399;SDS011;10359;53.596;22.520;2023-08-08T01:11:55;5.63;;;3.13;;
20399;SDS011;10359;53.596;22.520;2023-08-08T01:14:26;5.77;;;3.10;;
20399;SDS011;10359;53.596;22.520;2023-08-08T01:16:59;4.87;;;3.00;;
20399;SDS011;10359;53.596;22.520;2023-08-08T01:19:30;3.87;;;2.73;;
20399;SDS011;10359;53.596;22.520;2023-08-08T01:22:05;5.67;;;3.03;;
20399;SDS011;10359;53.596;22.520;2023-08-08T01:24:39;4.77;;;3.10;;
20399;SDS011;10359;53.596;22.520;2023-08-08T01:27:11;5.00;;;2.93;;
20399;SDS011;10359;53.596;22.520;2023-08-08T01:29:41;4.97;;;2.83;;
20399;SDS011;10359;53.596;22.520;2023-08-08T01:32:10;5.73;;;3.20;;
20399;SDS011;10359;53.596;22.520;2023-08-08T01:34:40;5.07;;;3.00;;
20399;SDS011;10359;53.596;22.520;2023-08-08T01:37:11;4.97;;;2.80;;
20399;SDS011;10359;53.596;22.520;2023-08-08T01:39:47;4.87;;;3.43;;
20399;SDS011;10359;53.596;22.520;2023-08-08T01:42:20;7.10;;;3.47;;
20399;SDS011;10359;53.596;22.520;2023-08-08T01:44:52;5.97;;;3.13;;
20399;SDS011;10359;53.596;22.520;2023-08-08T01:47:24;5.67;;;3.03;;
20399;SDS011;10359;53.596;22.520;2023-08-08T01:49:53;4.83;;;3.20;;
20399;SDS011;10359;53.596;22.520;2023-08-08T01:52:23;5.30;;;3.10;;
20399;SDS011;10359;53.596;22.520;2023-08-08T01:54:54;6.17;;;2.97;;
20399;SDS011;10359;53.596;22.520;2023-08-08T01:57:23;7.07;;;3.20;;
20399;SDS011;10359;53.596;22.520;2023-08-08T01:59:52;3.50;;;2.80;;
20399;SDS011;10359;53.596;22.520;2023-08-08T02:02:22;5.60;;;2.93;;
20399;SDS011;10359;53.596;22.520;2023-08-08T02:04:52;5.00;;;3.20;;
20399;SDS011;10359;53.596;22.520;2023-08-08T02:07:21;3.13;;;2.80;;
20399;SDS011;10359;53.596;22.520;2023-08-08T02:09:50;4.87;;;2.83;;
20399;SDS011;10359;53.596;22.520;2023-08-08T02:12:21;5.57;;;3.30;;
20399;SDS011;10359;53.596;22.520;2023-08-08T02:14:50;5.17;;;2.90;;
20399;SDS011;10359;53.596;22.520;2023-08-08T02:17:20;6.37;;;3.10;;
20399;SDS011;10359;53.596;22.520;2023-08-08T02:19:50;5.20;;;3.00;;
20399;SDS011;10359;53.596;22.520;2023-08-08T02:22:19;7.47;;;3.17;;
20399;SDS011;10359;53.596;22.520;2023-08-08T02:24:48;6.53;;;3.10;;
20399;SDS011;10359;53.596;22.520;2023-08-08T02:27:18;5.77;;;3.53;;
20399;SDS011;10359;53.596;22.520;2023-08-08T02:29:48;3.40;;;2.60;;
20399;SDS011;10359;53.596;22.520;2023-08-08T02:32:18;5.77;;;3.43;;
20399;SDS011;10359;53.596;22.520;2023-08-08T02:34:47;5.60;;;2.90;;
20399;SDS011;10359;53.596;22.520;2023-08-08T02:37:16;7.27;;;3.10;;
20399;SDS011;10359;53.596;22.520;2023-08-08T02:39:46;6.10;;;3.10;;
20399;SDS011;10359;53.596;22.520;2023-08-08T02:42:15;6.07;;;3.10;;
20399;SDS011;10359;53.596;22.520;2023-08-08T02:44:44;6.47;;;2.90;;
20399;SDS011;10359;53.596;22.520;2023-08-08T02:47:15;3.63;;;2.57;;
20399;SDS011;10359;53.596;22.520;2023-08-08T02:49:44;5.57;;;3.10;;
20399;SDS011;10359;53.596;22.520;2023-08-08T02:52:14;4.60;;;3.00;;
20399;SDS011;10359;53.596;22.520;2023-08-08T02:54:43;5.23;;;3.03;;
20399;SDS011;10359;53.596;22.520;2023-08-08T02:57:13;4.77;;;3.03;;
20399;SDS011;10359;53.596;22.520;2023-08-08T02:59:42;6.27;;;2.97;;
20399;SDS011;10359;53.596;22.520;2023-08-08T03:02:11;5.30;;;2.67;;
20399;SDS011;10359;53.596;22.520;2023-08-08T03:04:42;5.13;;;2.77;;
20399;SDS011;10359;53.596;22.520;2023-08-08T03:07:12;5.80;;;3.10;;
20399;SDS011;10359;53.596;22.520;2023-08-08T03:09:41;4.10;;;3.00;;
20399;SDS011;10359;53.596;22.520;2023-08-08T03:12:10;4.30;;;2.57;;
20399;SDS011;10359;53.596;22.520;2023-08-08T03:14:40;7.33;;;2.90;;
20399;SDS011;10359;53.596;22.520;2023-08-08T03:17:09;4.70;;;3.10;;
20399;SDS011;10359;53.596;22.520;2023-08-08T03:19:38;6.83;;;2.50;;
20399;SDS011;10359;53.596;22.520;2023-08-08T03:22:09;5.50;;;2.80;;
20399;SDS011;10359;53.596;22.520;2023-08-08T03:24:39;7.80;;;3.20;;
20399;SDS011;10359;53.596;22.520;2023-08-08T03:27:08;5.03;;;2.73;;
20399;SDS011;10359;53.596;22.520;2023-08-08T03:29:38;6.20;;;2.77;;
20399;SDS011;10359;53.596;22.520;2023-08-08T03:32:07;7.87;;;2.83;;
20399;SDS011;10359;53.596;22.520;2023-08-08T03:34:36;4.20;;;2.60;;
20399;SDS011;10359;53.596;22.520;2023-08-08T03:37:06;7.30;;;2.77;;
20399;SDS011;10359;53.596;22.520;2023-08-08T03:39:37;6.00;;;2.50;;
20399;SDS011;10359;53.596;22.520;2023-08-08T03:42:07;5.53;;;2.60;;
20399;SDS011;10359;53.596;22.520;2023-08-08T03:44:38;6.07;;;3.00;;
20399;SDS011;10359;53.596;22.520;2023-08-08T03:47:16;8.93;;;2.63;;
20399;SDS011;10359;53.596;22.520;2023-08-08T03:49:46;8.07;;;2.93;;
20399;SDS011;10359;53.596;22.520;2023-08-08T03:52:15;5.30;;;2.60;;
20399;SDS011;10359;53.596;22.520;2023-08-08T03:54:47;9.97;;;3.00;;
20399;SDS011;10359;53.596;22.520;2023-08-08T03:57:23;6.13;;;2.63;;
20399;SDS011;10359;53.596;22.520;2023-08-08T04:00:06;5.57;;;2.80;;
20399;SDS011;10359;53.596;22.520;2023-08-08T04:02:45;6.80;;;2.70;;
20399;SDS011;10359;53.596;22.520;2023-08-08T04:05:20;5.87;;;2.70;;
20399;SDS011;10359;53.596;22.520;2023-08-08T04:07:53;9.77;;;2.87;;
20399;SDS011;10359;53.596;22.520;2023-08-08T04:10:30;5.93;;;3.00;;
20399;SDS011;10359;53.596;22.520;2023-08-08T04:13:04;5.40;;;2.80;;
20399;SDS011;10359;53.596;22.520;2023-08-08T04:15:40;5.33;;;2.63;;
20399;SDS011;10359;53.596;22.520;2023-08-08T04:18:15;6.07;;;2.67;;
20399;SDS011;10359;53.596;22.520;2023-08-08T04:20:49;7.20;;;3.03;;
20399;SDS011;10359;53.596;22.520;2023-08-08T04:23:18;4.80;;;2.30;;
20399;SDS011;10359;53.596;22.520;2023-08-08T04:25:51;6.63;;;3.00;;
20399;SDS011;10359;53.596;22.520;2023-08-08T04:28:28;7.27;;;2.67;;
20399;SDS011;10359;53.596;22.520;2023-08-08T04:31:05;4.43;;;2.63;;
20399;SDS011;10359;53.596;22.520;2023-08-08T04:33:41;4.77;;;2.60;;
20399;SDS011;10359;53.596;22.520;2023-08-08T04:36:11;7.00;;;2.80;;
20399;SDS011;10359;53.596;22.520;2023-08-08T04:38:53;4.57;;;2.90;;
20399;SDS011;10359;53.596;22.520;2023-08-08T04:41:25;5.13;;;2.20;;
20399;SDS011;10359;53.596;22.520;2023-08-08T04:44:01;6.63;;;2.90;;
20399;SDS011;10359;53.596;22.520;2023-08-08T04:46:30;5.37;;;2.57;;
20399;SDS011;10359;53.596;22.520;2023-08-08T04:49:07;4.33;;;2.50;;
20399;SDS011;10359;53.596;22.520;2023-08-08T04:51:43;6.97;;;3.23;;
20399;SDS011;10359;53.596;22.520;2023-08-08T04:54:19;5.07;;;2.40;;
20399;SDS011;10359;53.596;22.520;2023-08-08T04:56:56;7.03;;;2.70;;
20399;SDS011;10359;53.596;22.520;2023-08-08T04:59:32;8.10;;;3.00;;
20399;SDS011;10359;53.596;22.520;2023-08-08T05:02:01;6.00;;;2.83;;
20399;SDS011;10359;53.596;22.520;2023-08-08T05:04:37;6.47;;;3.03;;
20399;SDS011;10359;53.596;22.520;2023-08-08T05:07:13;9.53;;;2.80;;
20399;SDS011;10359;53.596;22.520;2023-08-08T05:09:45;4.67;;;2.27;;
20399;SDS011;10359;53.596;22.520;2023-08-08T05:12:22;5.70;;;2.60;;
20399;SDS011;10359;53.596;22.520;2023-08-08T05:14:54;5.63;;;2.70;;
20399;SDS011;10359;53.596;22.520;2023-08-08T05:17:30;3.63;;;2.20;;
20399;SDS011;10359;53.596;22.520;2023-08-08T05:20:00;5.17;;;2.23;;
20399;SDS011;10359;53.596;22.520;2023-08-08T05:22:37;4.80;;;2.13;;
20399;SDS011;10359;53.596;22.520;2023-08-08T05:25:13;4.90;;;2.57;;
20399;SDS011;10359;53.596;22.520;2023-08-08T05:27:44;5.90;;;2.40;;
20399;SDS011;10359;53.596;22.520;2023-08-08T05:30:20;6.33;;;2.50;;
20399;SDS011;10359;53.596;22.520;2023-08-08T05:32:50;6.23;;;2.53;;
20399;SDS011;10359;53.596;22.520;2023-08-08T05:35:20;5.03;;;2.40;;
20399;SDS011;10359;53.596;22.520;2023-08-08T05:37:57;6.30;;;2.33;;
20399;SDS011;10359;53.596;22.520;2023-08-08T05:40:34;5.33;;;2.30;;
20399;SDS011;10359;53.596;22.520;2023-08-08T05:43:11;6.07;;;2.53;;
20399;SDS011;10359;53.596;22.520;2023-08-08T05:45:50;6.80;;;2.93;;
20399;SDS011;10359;53.596;22.520;2023-08-08T05:48:19;5.47;;;2.13;;
20399;SDS011;10359;53.596;22.520;2023-08-08T05:51:01;5.07;;;2.53;;
20399;SDS011;10359;53.596;22.520;2023-08-08T05:53:33;4.13;;;2.07;;
20399;SDS011;10359;53.596;22.520;2023-08-08T05:56:09;6.93;;;2.47;;
20399;SDS011;10359;53.596;22.520;2023-08-08T05:58:41;8.17;;;2.67;;
20399;SDS011;10359;53.596;22.520;2023-08-08T06:01:16;12.40;;;3.30;;
20399;SDS011;10359;53.596;22.520;2023-08-08T06:03:46;6.63;;;2.83;;
20399;SDS011;10359;53.596;22.520;2023-08-08T06:06:22;5.10;;;2.70;;
20399;SDS011;10359;53.596;22.520;2023-08-08T06:09:00;8.00;;;2.80;;
20399;SDS011;10359;53.596;22.520;2023-08-08T06:11:29;9.10;;;2.67;;
20399;SDS011;10359;53.596;22.520;2023-08-08T06:14:07;6.07;;;2.67;;
20399;SDS011;10359;53.596;22.520;2023-08-08T06:16:36;4.93;;;2.40;;
20399;SDS011;10359;53.596;22.520;2023-08-08T06:19:13;9.47;;;3.03;;
20399;SDS011;10359;53.596;22.520;2023-08-08T06:21:52;8.07;;;2.80;;
20399;SDS011;10359;53.596;22.520;2023-08-08T06:28:38;8.23;;;2.50;;
20399;SDS011;10359;53.596;22.520;2023-08-08T06:35:20;7.33;;;2.73;;
20399;SDS011;10359;53.596;22.520;2023-08-08T06:42:05;5.10;;;2.27;;
20399;SDS011;10359;53.596;22.520;2023-08-08T06:48:46;5.43;;;2.40;;
20399;SDS011;10359;53.596;22.520;2023-08-08T06:51:53;6.83;;;2.70;;
20399;SDS011;10359;53.596;22.520;2023-08-08T06:59:06;6.67;;;2.63;;
20399;SDS011;10359;53.596;22.520;2023-08-08T07:05:52;7.10;;;2.40;;
20399;SDS011;10359;53.596;22.520;2023-08-08T07:12:51;4.67;;;2.13;;
20399;SDS011;10359;53.596;22.520;2023-08-08T07:19:37;5.47;;;2.20;;
20399;SDS011;10359;53.596;22.520;2023-08-08T07:26:35;6.53;;;2.77;;
20399;SDS011;10359;53.596;22.520;2023-08-08T07:33:23;5.40;;;2.33;;
20399;SDS011;10359;53.596;22.520;2023-08-08T07:40:02;7.47;;;2.40;;
20399;SDS011;10359;53.596;22.520;2023-08-08T07:46:51;6.87;;;2.60;;
20399;SDS011;10359;53.596;22.520;2023-08-08T07:49:49;5.43;;;2.27;;
20399;SDS011;10359;53.596;22.520;2023-08-08T07:52:45;4.07;;;2.30;;
20399;SDS011;10359;53.596;22.520;2023-08-08T07:59:24;3.60;;;2.40;;
20399;SDS011;10359;53.596;22.520;2023-08-08T08:06:04;5.57;;;2.30;;
20399;SDS011;10359;53.596;22.520;2023-08-08T08:13:01;6.13;;;2.20;;
20399;SDS011;10359;53.596;22.520;2023-08-08T08:19:47;5.10;;;2.60;;
20399;SDS011;10359;53.596;22.520;2023-08-08T08:26:30;6.27;;;2.33;;
20399;SDS011;10359;53.596;22.520;2023-08-08T08:33:09;3.87;;;1.90;;
20399;SDS011;10359;53.596;22.520;2023-08-08T08:39:49;4.10;;;2.13;;
20399;SDS011;10359;53.596;22.520;2023-08-08T08:46:38;2.53;;;1.60;;
20399;SDS011;10359;53.596;22.520;2023-08-08T08:49:37;6.03;;;2.30;;
20399;SDS011;10359;53.596;22.520;2023-08-08T08:52:41;5.40;;;2.40;;
20399;SDS011;10359;53.596;22.520;2023-08-08T08:59:22;7.37;;;2.20;;
20399;SDS011;10359;53.596;22.520;2023-08-08T09:06:21;5.90;;;2.10;;
20399;SDS011;10359;53.596;22.520;2023-08-08T09:13:08;6.40;;;2.30;;
20399;SDS011;10359;53.596;22.520;2023-08-08T09:19:47;3.77;;;2.30;;
20399;SDS011;10359;53.596;22.520;2023-08-08T09:26:44;4.00;;;2.10;;
20399;SDS011;10359;53.596;22.520;2023-08-08T09:33:42;5.13;;;2.30;;
20399;SDS011;10359;53.596;22.520;2023-08-08T09:40:42;3.63;;;2.00;;
20399;SDS011;10359;53.596;22.520;2023-08-08T09:47:30;3.53;;;1.93;;
20399;SDS011;10359;53.596;22.520;2023-08-08T09:50:20;4.30;;;2.03;;
20399;SDS011;10359;53.596;22.520;2023-08-08T09:56:53;3.43;;;2.00;;
20399;SDS011;10359;53.596;22.520;2023-08-08T10:03:29;5.90;;;2.10;;
20399;SDS011;10359;53.596;22.520;2023-08-08T10:10:06;4.83;;;2.10;;
20399;SDS011;10359;53.596;22.520;2023-08-08T10:16:41;4.53;;;2.13;;
20399;SDS011;10359;53.596;22.520;2023-08-08T10:23:18;5.97;;;2.13;;
20399;SDS011;10359;53.596;22.520;2023-08-08T10:29:53;4.57;;;1.77;;
20399;SDS011;10359;53.596;22.520;2023-08-08T10:36:48;5.27;;;2.00;;
20399;SDS011;10359;53.596;22.520;2023-08-08T10:43:48;5.27;;;2.13;;
20399;SDS011;10359;53.596;22.520;2023-08-08T10:50:40;4.53;;;2.03;;
20399;SDS011;10359;53.596;22.520;2023-08-08T11:01:34;3.00;;;2.23;;
20399;SDS011;10359;53.596;22.520;2023-08-08T11:08:27;2.83;;;1.80;;
20399;SDS011;10359;53.596;22.520;2023-08-08T11:15:20;4.67;;;1.90;;
20399;SDS011;10359;53.596;22.520;2023-08-08T11:21:55;2.80;;;1.90;;
20399;SDS011;10359;53.596;22.520;2023-08-08T11:28:50;2.63;;;1.70;;
20399;SDS011;10359;53.596;22.520;2023-08-08T11:35:43;3.33;;;1.73;;
20399;SDS011;10359;53.596;22.520;2023-08-08T11:42:38;4.33;;;2.40;;
20399;SDS011;10359;53.596;22.520;2023-08-08T11:49:14;2.67;;;1.67;;
20399;SDS011;10359;53.596;22.520;2023-08-08T11:56:05;2.90;;;2.00;;
20399;SDS011;10359;53.596;22.520;2023-08-08T12:02:40;3.70;;;2.00;;
20399;SDS011;10359;53.596;22.520;2023-08-08T12:09:33;3.47;;;1.97;;
20399;SDS011;10359;53.596;22.520;2023-08-08T12:16:27;5.03;;;2.10;;
20399;SDS011;10359;53.596;22.520;2023-08-08T12:23:22;3.20;;;1.80;;
20399;SDS011;10359;53.596;22.520;2023-08-08T12:30:13;3.50;;;1.60;;
20399;SDS011;10359;53.596;22.520;2023-08-08T12:37:04;4.23;;;1.80;;
20399;SDS011;10359;53.596;22.520;2023-08-08T12:43:55;3.13;;;1.90;;
20399;SDS011;10359;53.596;22.520;2023-08-08T12:50:46;3.03;;;1.77;;
20399;SDS011;10359;53.596;22.520;2023-08-08T13:01:40;3.07;;;1.60;;
20399;SDS011;10359;53.596;22.520;2023-08-08T13:08:31;2.20;;;1.57;;
20399;SDS011;10359;53.596;22.520;2023-08-08T13:15:22;2.63;;;1.50;;
20399;SDS011;10359;53.596;22.520;2023-08-08T13:22:15;1.60;;;1.27;;
20399;SDS011;10359;53.596;22.520;2023-08-08T13:28:48;2.33;;;1.50;;
20399;SDS011;10359;53.596;22.520;2023-08-08T13:35:40;1.53;;;1.43;;
20399;SDS011;10359;53.596;22.520;2023-08-08T13:42:33;4.20;;;1.30;;
20399;SDS011;10359;53.596;22.520;2023-08-08T13:49:09;4.43;;;1.50;;
20399;SDS011;10359;53.596;22.520;2023-08-08T13:56:01;2.77;;;1.30;;
20399;SDS011;10359;53.596;22.520;2023-08-08T14:02:53;2.73;;;1.30;;
20399;SDS011;10359;53.596;22.520;2023-08-08T14:09:27;4.23;;;1.50;;
20399;SDS011;10359;53.596;22.520;2023-08-08T14:16:17;1.77;;;1.30;;
20399;SDS011;10359;53.596;22.520;2023-08-08T14:23:09;1.73;;;1.27;;
20399;SDS011;10359;53.596;22.520;2023-08-08T14:30:01;3.10;;;1.33;;
20399;SDS011;10359;53.596;22.520;2023-08-08T14:36:53;1.63;;;1.20;;
20399;SDS011;10359;53.596;22.520;2023-08-08T14:43:46;1.80;;;1.30;;
20399;SDS011;10359;53.596;22.520;2023-08-08T14:50:19;2.00;;;1.33;;
20399;SDS011;10359;53.596;22.520;2023-08-08T14:57:10;1.67;;;1.30;;
20399;SDS011;10359;53.596;22.520;2023-08-08T15:04:02;2.00;;;1.40;;
20399;SDS011;10359;53.596;22.520;2023-08-08T15:10:53;2.77;;;1.10;;
20399;SDS011;10359;53.596;22.520;2023-08-08T15:17:45;1.40;;;0.93;;
20399;SDS011;10359;53.596;22.520;2023-08-08T15:24:37;1.83;;;0.93;;
20399;SDS011;10359;53.596;22.520;2023-08-08T15:31:28;1.53;;;1.10;;
20399;SDS011;10359;53.596;22.520;2023-08-08T15:38:22;1.40;;;1.10;;
20399;SDS011;10359;53.596;22.520;2023-08-08T15:45:14;5.10;;;1.17;;
20399;SDS011;10359;53.596;22.520;2023-08-08T15:55:49;1.87;;;0.93;;
20399;SDS011;10359;53.596;22.520;2023-08-08T16:02:41;1.97;;;1.13;;
20399;SDS011;10359;53.596;22.520;2023-08-08T16:16:56;1.30;;;1.20;;
20399;SDS011;10359;53.596;22.520;2023-08-08T16:19:29;1.07;;;0.97;;
20399;SDS011;10359;53.596;22.520;2023-08-08T16:21:58;2.17;;;1.17;;
20399;SDS011;10359;53.596;22.520;2023-08-08T16:24:30;2.13;;;1.33;;
20399;SDS011;10359;53.596;22.520;2023-08-08T16:26:59;3.07;;;1.20;;
20399;SDS011;10359;53.596;22.520;2023-08-08T16:29:29;1.80;;;1.20;;
20399;SDS011;10359;53.596;22.520;2023-08-08T16:32:00;3.10;;;1.27;;
20399;SDS011;10359;53.596;22.520;2023-08-08T16:34:29;1.60;;;1.20;;
20399;SDS011;10359;53.596;22.520;2023-08-08T16:36:59;3.43;;;1.40;;
20399;SDS011;10359;53.596;22.520;2023-08-08T16:39:28;1.20;;;1.10;;
20399;SDS011;10359;53.596;22.520;2023-08-08T16:41:57;2.70;;;1.20;;
20399;SDS011;10359;53.596;22.520;2023-08-08T16:44:27;2.23;;;1.40;;
20399;SDS011;10359;53.596;22.520;2023-08-08T16:46:56;2.47;;;1.20;;
20399;SDS011;10359;53.596;22.520;2023-08-08T16:49:27;1.67;;;1.43;;
20399;SDS011;10359;53.596;22.520;2023-08-08T16:51:57;1.50;;;1.40;;
20399;SDS011;10359;53.596;22.520;2023-08-08T16:54:27;2.03;;;1.50;;
20399;SDS011;10359;53.596;22.520;2023-08-08T16:56:56;1.20;;;1.10;;
20399;SDS011;10359;53.596;22.520;2023-08-08T16:59:26;2.80;;;1.40;;
20399;SDS011;10359;53.596;22.520;2023-08-08T17:01:55;1.60;;;1.50;;
20399;SDS011;10359;53.596;22.520;2023-08-08T17:04:25;2.23;;;1.37;;
20399;SDS011;10359;53.596;22.520;2023-08-08T17:06:57;2.90;;;1.40;;
20399;SDS011;10359;53.596;22.520;2023-08-08T17:09:27;2.67;;;1.30;;
20399;SDS011;10359;53.596;22.520;2023-08-08T17:11:56;2.97;;;1.47;;
20399;SDS011;10359;53.596;22.520;2023-08-08T17:14:27;3.27;;;1.43;;
20399;SDS011;10359;53.596;22.520;2023-08-08T17:16:58;1.67;;;1.20;;
20399;SDS011;10359;53.596;22.520;2023-08-08T17:19:31;2.40;;;1.23;;
20399;SDS011;10359;53.596;22.520;2023-08-08T17:22:01;3.37;;;1.70;;
20399;SDS011;10359;53.596;22.520;2023-08-08T17:24:31;2.73;;;1.40;;
20399;SDS011;10359;53.596;22.520;2023-08-08T17:27:06;2.87;;;1.50;;
20399;SDS011;10359;53.596;22.520;2023-08-08T17:29:37;2.17;;;1.37;;
20399;SDS011;10359;53.596;22.520;2023-08-08T17:32:07;2.47;;;1.30;;
20399;SDS011;10359;53.596;22.520;2023-08-08T17:34:38;1.23;;;1.10;;
20399;SDS011;10359;53.596;22.520;2023-08-08T17:37:09;2.10;;;1.20;;
20399;SDS011;10359;53.596;22.520;2023-08-08T17:39:38;2.40;;;1.43;;
20399;SDS011;10359;53.596;22.520;2023-08-08T17:42:08;2.27;;;1.30;;
20399;SDS011;10359;53.596;22.520;2023-08-08T17:44:37;1.40;;;1.10;;
20399;SDS011;10359;53.596;22.520;2023-08-08T17:47:07;1.73;;;1.20;;
20399;SDS011;10359;53.596;22.520;2023-08-08T17:49:39;3.10;;;1.23;;
20399;SDS011;10359;53.596;22.520;2023-08-08T17:52:12;2.10;;;1.20;;
20399;SDS011;10359;53.596;22.520;2023-08-08T17:54:41;3.13;;;1.40;;
20399;SDS011;10359;53.596;22.520;2023-08-08T17:57:11;2.90;;;1.40;;
20399;SDS011;10359;53.596;22.520;2023-08-08T17:59:45;2.10;;;1.20;;
20399;SDS011;10359;53.596;22.520;2023-08-08T18:02:15;4.33;;;1.37;;
20399;SDS011;10359;53.596;22.520;2023-08-08T18:04:53;2.20;;;1.20;;
20399;SDS011;10359;53.596;22.520;2023-08-08T18:07:25;3.07;;;1.37;;
20399;SDS011;10359;53.596;22.520;2023-08-08T18:09:55;2.00;;;1.20;;
20399;SDS011;10359;53.596;22.520;2023-08-08T18:12:29;1.40;;;1.23;;
20399;SDS011;10359;53.596;22.520;2023-08-08T18:15:00;2.60;;;1.43;;
20399;SDS011;10359;53.596;22.520;2023-08-08T18:17:36;2.30;;;1.20;;
20399;SDS011;10359;53.596;22.520;2023-08-08T18:20:14;3.20;;;1.40;;
20399;SDS011;10359;53.596;22.520;2023-08-08T18:22:49;3.13;;;1.40;;
20399;SDS011;10359;53.596;22.520;2023-08-08T18:25:22;1.33;;;1.10;;
20399;SDS011;10359;53.596;22.520;2023-08-08T18:27:55;3.70;;;1.30;;
20399;SDS011;10359;53.596;22.520;2023-08-08T18:30:33;2.70;;;1.20;;
20399;SDS011;10359;53.596;22.520;2023-08-08T18:33:06;1.93;;;1.40;;
20399;SDS011;10359;53.596;22.520;2023-08-08T18:35:40;1.70;;;1.33;;
20399;SDS011;10359;53.596;22.520;2023-08-08T18:38:12;2.00;;;1.40;;
20399;SDS011;10359;53.596;22.520;2023-08-08T18:40:45;2.43;;;1.30;;
20399;SDS011;10359;53.596;22.520;2023-08-08T18:43:22;1.70;;;1.40;;
20399;SDS011;10359;53.596;22.520;2023-08-08T18:45:54;3.47;;;1.50;;
20399;SDS011;10359;53.596;22.520;2023-08-08T18:48:26;2.43;;;1.40;;
20399;SDS011;10359;53.596;22.520;2023-08-08T18:50:57;2.93;;;1.60;;
20399;SDS011;10359;53.596;22.520;2023-08-08T18:53:28;2.53;;;1.50;;
20399;SDS011;10359;53.596;22.520;2023-08-08T18:55:58;1.70;;;1.40;;
20399;SDS011;10359;53.596;22.520;2023-08-08T18:58:28;2.57;;;1.30;;
20399;SDS011;10359;53.596;22.520;2023-08-08T19:00:59;4.47;;;1.50;;
20399;SDS011;10359;53.596;22.520;2023-08-08T19:03:32;1.73;;;1.30;;
20399;SDS011;10359;53.596;22.520;2023-08-08T19:06:04;3.40;;;1.20;;
20399;SDS011;10359;53.596;22.520;2023-08-08T19:08:36;1.63;;;1.27;;
20399;SDS011;10359;53.596;22.520;2023-08-08T19:11:06;1.20;;;1.10;;
20399;SDS011;10359;53.596;22.520;2023-08-08T19:13:38;1.30;;;1.20;;
20399;SDS011;10359;53.596;22.520;2023-08-08T19:16:09;1.20;;;1.10;;
20399;SDS011;10359;53.596;22.520;2023-08-08T19:18:41;2.60;;;1.27;;
20399;SDS011;10359;53.596;22.520;2023-08-08T19:21:13;2.20;;;1.40;;
20399;SDS011;10359;53.596;22.520;2023-08-08T19:23:45;2.93;;;1.50;;
20399;SDS011;10359;53.596;22.520;2023-08-08T19:26:20;2.37;;;1.30;;
20399;SDS011;10359;53.596;22.520;2023-08-08T19:28:50;2.17;;;1.17;;
20399;SDS011;10359;53.596;22.520;2023-08-08T19:31:20;1.90;;;1.20;;
20399;SDS011;10359;53.596;22.520;2023-08-08T19:33:53;1.07;;;1.00;;
20399;SDS011;10359;53.596;22.520;2023-08-08T19:36:36;1.77;;;1.20;;
20399;SDS011;10359;53.596;22.520;2023-08-08T19:39:07;1.77;;;1.30;;
20399;SDS011;10359;53.596;22.520;2023-08-08T19:41:37;1.33;;;1.10;;
20399;SDS011;10359;53.596;22.520;2023-08-08T19:44:07;1.20;;;1.03;;
20399;SDS011;10359;53.596;22.520;2023-08-08T19:46:38;1.90;;;1.50;;
20399;SDS011;10359;53.596;22.520;2023-08-08T19:49:08;1.40;;;1.23;;
20399;SDS011;10359;53.596;22.520;2023-08-08T19:51:41;1.40;;;1.20;;
20399;SDS011;10359;53.596;22.520;2023-08-08T19:54:11;2.67;;;1.30;;
20399;SDS011;10359;53.596;22.520;2023-08-08T19:56:41;2.70;;;1.60;;
20399;SDS011;10359;53.596;22.520;2023-08-08T19:59:13;2.80;;;1.53;;
20399;SDS011;10359;53.596;22.520;2023-08-08T20:01:42;1.63;;;1.40;;
20399;SDS011;10359;53.596;22.520;2023-08-08T20:04:13;4.03;;;1.20;;
20399;SDS011;10359;53.596;22.520;2023-08-08T20:06:45;2.57;;;1.40;;
20399;SDS011;10359;53.596;22.520;2023-08-08T20:09:15;2.03;;;1.40;;
20399;SDS011;10359;53.596;22.520;2023-08-08T20:11:45;1.50;;;1.40;;
20399;SDS011;10359;53.596;22.520;2023-08-08T20:14:15;1.53;;;1.37;;
20399;SDS011;10359;53.596;22.520;2023-08-08T20:16:44;2.57;;;1.60;;
20399;SDS011;10359;53.596;22.520;2023-08-08T20:19:15;2.13;;;1.30;;
20399;SDS011;10359;53.596;22.520;2023-08-08T20:21:47;1.77;;;1.40;;
20399;SDS011;10359;53.596;22.520;2023-08-08T20:24:21;1.30;;;1.20;;
20399;SDS011;10359;53.596;22.520;2023-08-08T20:26:54;1.33;;;1.23;;
20399;SDS011;10359;53.596;22.520;2023-08-08T20:29:24;1.63;;;1.33;;
20399;SDS011;10359;53.596;22.520;2023-08-08T20:31:54;3.63;;;1.40;;
20399;SDS011;10359;53.596;22.520;2023-08-08T20:34:25;1.70;;;1.47;;
20399;SDS011;10359;53.596;22.520;2023-08-08T20:37:00;2.27;;;1.43;;
20399;SDS011;10359;53.596;22.520;2023-08-08T20:39:32;3.30;;;1.30;;
20399;SDS011;10359;53.596;22.520;2023-08-08T20:42:02;2.77;;;1.50;;
20399;SDS011;10359;53.596;22.520;2023-08-08T20:44:32;2.57;;;1.40;;
20399;SDS011;10359;53.596;22.520;2023-08-08T20:47:03;1.30;;;1.20;;
20399;SDS011;10359;53.596;22.520;2023-08-08T20:49:32;1.87;;;1.40;;
20399;SDS011;10359;53.596;22.520;2023-08-08T20:52:04;1.60;;;1.50;;
20399;SDS011;10359;53.596;22.520;2023-08-08T20:54:34;2.87;;;1.50;;
20399;SDS011;10359;53.596;22.520;2023-08-08T20:57:05;1.97;;;1.50;;
20399;SDS011;10359;53.596;22.520;2023-08-08T20:59:35;2.33;;;1.30;;
20399;SDS011;10359;53.596;22.520;2023-08-08T21:02:04;3.10;;;1.50;;
20399;SDS011;10359;53.596;22.520;2023-08-08T21:04:35;2.23;;;1.53;;
20399;SDS011;10359;53.596;22.520;2023-08-08T21:07:06;2.40;;;1.43;;
20399;SDS011;10359;53.596;22.520;2023-08-08T21:09:39;2.40;;;1.47;;
20399;SDS011;10359;53.596;22.520;2023-08-08T21:12:08;1.60;;;1.50;;